Terminal Aerodrome Forecast
Issued by NWS

Home | Current Version | Previous Version | Text Only | Print | Product List | Glossary On
Versions: 1 2 3 4 5 6 7 8 9 10 11 12 13 14
000
FTUS45 KTFX 270520
TAFHVR
TAF
KHVR 270520Z 2706/2806 20006KT P6SM BKN120
     FM272000 27008KT P6SM SCT070 BKN100 PROB30 2720/2802 -TSRA
      BKN060CB
     FM280200 VRB06KT P6SM -SHRA OVC060=

USA.gov is the U.S. government's official web portal to all federal, state and local government web resources and services.